sensor_id;sensor_type;location;lat;lon;timestamp;pressure;altitude;pressure_sealevel;temperature;humidity
63883;BME280;50047;50.596;30.466;2022-09-09T00:06:43;99873.39;;;12.70;50.19
63883;BME280;50047;50.596;30.466;2022-09-09T00:09:16;99871.34;;;12.58;50.85
63883;BME280;50047;50.596;30.466;2022-09-09T00:14:45;99876.71;;;12.65;50.64
63883;BME280;50047;50.596;30.466;2022-09-09T00:20:35;99878.44;;;12.56;50.95
63883;BME280;50047;50.596;30.466;2022-09-09T00:28:53;99884.67;;;12.43;51.48
63883;BME280;50047;50.596;30.466;2022-09-09T00:31:26;99889.11;;;12.42;51.47
63883;BME280;50047;50.596;30.466;2022-09-09T00:34:00;99890.52;;;12.37;51.66
63883;BME280;50047;50.596;30.466;2022-09-09T00:36:32;99893.65;;;12.30;52.06
63883;BME280;50047;50.596;30.466;2022-09-09T00:39:01;99891.17;;;12.26;52.33
63883;BME280;50047;50.596;30.466;2022-09-09T00:47:15;99897.09;;;13.45;50.51
63883;BME280;50047;50.596;30.466;2022-09-09T00:57:59;99898.56;;;12.88;50.66
63883;BME280;50047;50.596;30.466;2022-09-09T01:00:27;99897.92;;;12.73;50.81
63883;BME280;50047;50.596;30.466;2022-09-09T01:11:22;99921.05;;;12.48;51.46
63883;BME280;50047;50.596;30.466;2022-09-09T01:13:58;99919.31;;;12.41;51.20
63883;BME280;50047;50.596;30.466;2022-09-09T01:16:29;99917.59;;;12.28;52.08
63883;BME280;50047;50.596;30.466;2022-09-09T01:18:59;99915.25;;;12.27;51.89
63883;BME280;50047;50.596;30.466;2022-09-09T01:21:51;99918.88;;;12.18;51.82
63883;BME280;50047;50.596;30.466;2022-09-09T01:24:29;99918.02;;;12.18;52.10
63883;BME280;50047;50.596;30.466;2022-09-09T01:27:23;99917.66;;;12.16;52.08
63883;BME280;50047;50.596;30.466;2022-09-09T01:29:52;99915.86;;;12.12;51.50
63883;BME280;50047;50.596;30.466;2022-09-09T01:32:42;99919.68;;;12.11;51.30
63883;BME280;50047;50.596;30.466;2022-09-09T01:35:18;99916.80;;;11.96;52.19
63883;BME280;50047;50.596;30.466;2022-09-09T01:37:49;99916.98;;;12.33;52.92
63883;BME280;50047;50.596;30.466;2022-09-09T01:40:16;99909.79;;;12.85;52.15
63883;BME280;50047;50.596;30.466;2022-09-09T01:42:44;99905.27;;;13.05;51.23
63883;BME280;50047;50.596;30.466;2022-09-09T01:45:33;99902.20;;;12.45;51.94
63883;BME280;50047;50.596;30.466;2022-09-09T01:48:00;99901.05;;;12.80;50.93
63883;BME280;50047;50.596;30.466;2022-09-09T01:50:42;99898.48;;;12.63;51.15
63883;BME280;50047;50.596;30.466;2022-09-09T01:53:10;99901.23;;;12.41;51.70
63883;BME280;50047;50.596;30.466;2022-09-09T01:55:42;99904.58;;;12.29;52.01
63883;BME280;50047;50.596;30.466;2022-09-09T02:01:16;99900.23;;;12.20;51.80
63883;BME280;50047;50.596;30.466;2022-09-09T02:03:52;99897.58;;;12.10;52.05
63883;BME280;50047;50.596;30.466;2022-09-09T02:06:34;99903.66;;;12.11;51.40
63883;BME280;50047;50.596;30.466;2022-09-09T02:09:19;99902.77;;;12.07;51.65
63883;BME280;50047;50.596;30.466;2022-09-09T02:12:00;99904.52;;;11.95;52.05
63883;BME280;50047;50.596;30.466;2022-09-09T02:14:42;99904.86;;;11.84;52.34
63883;BME280;50047;50.596;30.466;2022-09-09T02:17:16;99900.65;;;11.82;52.62
63883;BME280;50047;50.596;30.466;2022-09-09T02:20:14;99904.92;;;11.73;52.75
63883;BME280;50047;50.596;30.466;2022-09-09T02:22:48;99908.32;;;12.13;53.89
63883;BME280;50047;50.596;30.466;2022-09-09T02:25:21;99911.80;;;12.53;53.22
63883;BME280;50047;50.596;30.466;2022-09-09T02:27:50;99905.61;;;12.73;52.74
63883;BME280;50047;50.596;30.466;2022-09-09T02:30:19;99904.69;;;12.72;52.29
63883;BME280;50047;50.596;30.466;2022-09-09T02:32:54;99908.39;;;12.59;52.18
63883;BME280;50047;50.596;30.466;2022-09-09T02:35:32;99906.63;;;12.54;51.81
63883;BME280;50047;50.596;30.466;2022-09-09T02:38:08;99913.98;;;12.33;52.40
63883;BME280;50047;50.596;30.466;2022-09-09T02:40:37;99918.13;;;12.23;51.84
63883;BME280;50047;50.596;30.466;2022-09-09T02:43:05;99914.95;;;12.10;52.73
63883;BME280;50047;50.596;30.466;2022-09-09T02:45:48;99910.85;;;12.04;52.34
63883;BME280;50047;50.596;30.466;2022-09-09T02:48:45;99907.19;;;11.94;52.78
63883;BME280;50047;50.596;30.466;2022-09-09T02:51:38;99905.01;;;11.79;53.52
63883;BME280;50047;50.596;30.466;2022-09-09T02:54:27;99909.48;;;11.70;53.51
63883;BME280;50047;50.596;30.466;2022-09-09T02:57:19;99907.46;;;11.53;54.34
63883;BME280;50047;50.596;30.466;2022-09-09T02:59:50;99905.64;;;11.95;54.89
63883;BME280;50047;50.596;30.466;2022-09-09T03:02:19;99904.27;;;12.33;54.36
63883;BME280;50047;50.596;30.466;2022-09-09T03:04:50;99894.80;;;12.61;53.28
63883;BME280;50047;50.596;30.466;2022-09-09T03:07:19;99901.11;;;12.57;52.95
63883;BME280;50047;50.596;30.466;2022-09-09T03:09:47;99901.36;;;12.53;52.43
63883;BME280;50047;50.596;30.466;2022-09-09T03:12:16;99906.59;;;12.39;52.18
63883;BME280;50047;50.596;30.466;2022-09-09T03:14:43;99904.03;;;12.29;52.36
63883;BME280;50047;50.596;30.466;2022-09-09T03:17:12;99911.26;;;12.18;52.37
63883;BME280;50047;50.596;30.466;2022-09-09T03:19:45;99915.42;;;12.05;52.62
63883;BME280;50047;50.596;30.466;2022-09-09T03:22:13;99914.52;;;11.93;52.29
63883;BME280;50047;50.596;30.466;2022-09-09T03:24:41;99911.79;;;11.82;52.83
63883;BME280;50047;50.596;30.466;2022-09-09T03:27:08;99915.02;;;11.76;53.16
63883;BME280;50047;50.596;30.466;2022-09-09T03:29:36;99918.15;;;11.77;53.39
63883;BME280;50047;50.596;30.466;2022-09-09T03:32:06;99924.96;;;12.32;53.82
63883;BME280;50047;50.596;30.466;2022-09-09T03:34:33;99914.48;;;13.15;52.77
63883;BME280;50047;50.596;30.466;2022-09-09T03:37:00;99916.21;;;13.75;50.58
63883;BME280;50047;50.596;30.466;2022-09-09T03:39:28;99915.64;;;14.14;49.17
63883;BME280;50047;50.596;30.466;2022-09-09T03:41:58;99924.20;;;14.31;48.41
63883;BME280;50047;50.596;30.466;2022-09-09T03:44:25;99924.14;;;14.56;47.65
63883;BME280;50047;50.596;30.466;2022-09-09T03:46:53;99920.19;;;15.03;46.74
63883;BME280;50047;50.596;30.466;2022-09-09T03:49:20;99924.21;;;15.35;45.96
63883;BME280;50047;50.596;30.466;2022-09-09T03:51:49;99929.92;;;15.68;45.39
63883;BME280;50047;50.596;30.466;2022-09-09T03:54:16;99936.02;;;15.78;44.59
63883;BME280;50047;50.596;30.466;2022-09-09T03:56:43;99935.83;;;15.71;45.10
63883;BME280;50047;50.596;30.466;2022-09-09T03:59:11;99932.74;;;15.71;44.89
63883;BME280;50047;50.596;30.466;2022-09-09T04:01:38;99932.88;;;15.96;44.71
63883;BME280;50047;50.596;30.466;2022-09-09T04:04:07;99932.85;;;16.40;43.46
63883;BME280;50047;50.596;30.466;2022-09-09T04:06:35;99930.90;;;16.82;43.08
63883;BME280;50047;50.596;30.466;2022-09-09T04:09:03;99924.33;;;16.72;42.64
63883;BME280;50047;50.596;30.466;2022-09-09T04:11:30;99918.61;;;16.60;42.90
63883;BME280;50047;50.596;30.466;2022-09-09T04:13:58;99923.15;;;16.31;43.10
63883;BME280;50047;50.596;30.466;2022-09-09T04:16:25;99925.59;;;15.81;44.21
63883;BME280;50047;50.596;30.466;2022-09-09T04:18:53;99915.25;;;14.94;45.57
63883;BME280;50047;50.596;30.466;2022-09-09T04:21:20;99918.14;;;14.46;46.54
63883;BME280;50047;50.596;30.466;2022-09-09T04:23:48;99917.99;;;14.01;47.46
63883;BME280;50047;50.596;30.466;2022-09-09T04:26:15;99925.95;;;13.97;47.67
63883;BME280;50047;50.596;30.466;2022-09-09T04:28:43;99937.10;;;13.87;47.80
63883;BME280;50047;50.596;30.466;2022-09-09T04:31:19;99950.54;;;13.90;47.65
63883;BME280;50047;50.596;30.466;2022-09-09T04:33:48;99954.65;;;13.81;47.67
63883;BME280;50047;50.596;30.466;2022-09-09T04:36:17;99956.89;;;13.70;48.24
63883;BME280;50047;50.596;30.466;2022-09-09T04:38:47;99957.95;;;13.70;48.14
63883;BME280;50047;50.596;30.466;2022-09-09T04:41:15;99955.56;;;13.61;48.20
63883;BME280;50047;50.596;30.466;2022-09-09T04:43:44;99954.90;;;13.53;48.46
63883;BME280;50047;50.596;30.466;2022-09-09T04:46:12;99953.09;;;13.49;48.93
63883;BME280;50047;50.596;30.466;2022-09-09T04:48:39;99954.86;;;14.55;47.13
63883;BME280;50047;50.596;30.466;2022-09-09T04:51:11;99958.42;;;15.95;44.38
63883;BME280;50047;50.596;30.466;2022-09-09T04:53:39;99961.91;;;17.41;42.06
63883;BME280;50047;50.596;30.466;2022-09-09T04:56:09;99962.16;;;18.71;40.07
63883;BME280;50047;50.596;30.466;2022-09-09T04:58:41;99965.89;;;19.82;38.97
63883;BME280;50047;50.596;30.466;2022-09-09T05:01:16;99964.36;;;20.92;37.55
63883;BME280;50047;50.596;30.466;2022-09-09T05:03:48;99964.27;;;21.85;36.16
63883;BME280;50047;50.596;30.466;2022-09-09T05:06:21;99964.36;;;22.95;35.28
63883;BME280;50047;50.596;30.466;2022-09-09T05:08:52;99966.27;;;23.70;32.17
63883;BME280;50047;50.596;30.466;2022-09-09T05:11:25;99967.41;;;24.74;32.61
63883;BME280;50047;50.596;30.466;2022-09-09T05:13:59;99968.56;;;25.83;30.79
63883;BME280;50047;50.596;30.466;2022-09-09T05:16:28;99964.42;;;26.13;29.41
63883;BME280;50047;50.596;30.466;2022-09-09T05:18:55;99959.37;;;25.63;28.96
63883;BME280;50047;50.596;30.466;2022-09-09T05:21:24;99951.21;;;25.18;28.74
63883;BME280;50047;50.596;30.466;2022-09-09T05:23:54;99949.40;;;26.29;28.59
63883;BME280;50047;50.596;30.466;2022-09-09T05:26:22;99946.61;;;27.60;27.78
63883;BME280;50047;50.596;30.466;2022-09-09T05:28:51;99944.48;;;28.53;25.67
63883;BME280;50047;50.596;30.466;2022-09-09T05:31:19;99945.95;;;28.47;26.61
63883;BME280;50047;50.596;30.466;2022-09-09T05:33:48;99946.16;;;27.65;25.81
63883;BME280;50047;50.596;30.466;2022-09-09T05:36:20;99947.55;;;27.50;26.29
63883;BME280;50047;50.596;30.466;2022-09-09T05:38:51;99952.35;;;27.51;25.92
63883;BME280;50047;50.596;30.466;2022-09-09T05:41:21;99956.14;;;28.07;26.08
63883;BME280;50047;50.596;30.466;2022-09-09T05:43:50;99951.67;;;28.19;25.41
63883;BME280;50047;50.596;30.466;2022-09-09T05:46:19;99953.52;;;28.08;25.15
63883;BME280;50047;50.596;30.466;2022-09-09T05:48:49;99956.89;;;27.87;25.14
63883;BME280;50047;50.596;30.466;2022-09-09T05:51:24;99954.09;;;27.32;25.45
63883;BME280;50047;50.596;30.466;2022-09-09T05:53:54;99957.18;;;27.68;25.42
63883;BME280;50047;50.596;30.466;2022-09-09T05:56:24;99962.05;;;27.89;25.11
63883;BME280;50047;50.596;30.466;2022-09-09T05:58:53;99954.70;;;27.56;25.04
63883;BME280;50047;50.596;30.466;2022-09-09T06:01:26;99958.74;;;27.59;25.40
63883;BME280;50047;50.596;30.466;2022-09-09T06:03:54;99955.00;;;27.44;25.18
63883;BME280;50047;50.596;30.466;2022-09-09T06:06:27;99955.40;;;27.29;25.47
63883;BME280;50047;50.596;30.466;2022-09-09T06:08:57;99961.48;;;26.17;26.49
63883;BME280;50047;50.596;30.466;2022-09-09T06:11:29;99963.31;;;24.38;28.56
63883;BME280;50047;50.596;30.466;2022-09-09T06:14:00;99960.59;;;22.97;30.40
63883;BME280;50047;50.596;30.466;2022-09-09T06:16:29;99973.93;;;21.88;31.88
63883;BME280;50047;50.596;30.466;2022-09-09T06:18:57;99989.75;;;21.06;32.92
63883;BME280;50047;50.596;30.466;2022-09-09T06:21:30;99984.31;;;20.56;34.05
63883;BME280;50047;50.596;30.466;2022-09-09T06:24:00;99979.34;;;20.20;34.55
63883;BME280;50047;50.596;30.466;2022-09-09T06:26:30;99977.80;;;20.01;34.81
63883;BME280;50047;50.596;30.466;2022-09-09T06:28:59;99975.77;;;19.55;35.44
63883;BME280;50047;50.596;30.466;2022-09-09T06:31:28;99979.98;;;19.18;36.22
63883;BME280;50047;50.596;30.466;2022-09-09T06:34:00;99974.64;;;18.82;37.01
63883;BME280;50047;50.596;30.466;2022-09-09T06:36:31;99973.11;;;18.82;36.88
63883;BME280;50047;50.596;30.466;2022-09-09T06:38:59;99977.01;;;18.85;36.84
63883;BME280;50047;50.596;30.466;2022-09-09T06:41:30;99981.84;;;18.70;36.92
63883;BME280;50047;50.596;30.466;2022-09-09T06:43:58;99988.80;;;17.87;38.34
63883;BME280;50047;50.596;30.466;2022-09-09T06:46:33;99984.89;;;17.41;39.26
63883;BME280;50047;50.596;30.466;2022-09-09T06:49:01;99985.31;;;17.11;39.87
63883;BME280;50047;50.596;30.466;2022-09-09T06:51:35;99991.61;;;17.04;40.11
63883;BME280;50047;50.596;30.466;2022-09-09T06:54:03;99992.92;;;16.71;41.23
63883;BME280;50047;50.596;30.466;2022-09-09T06:56:33;99984.41;;;16.48;41.74
63883;BME280;50047;50.596;30.466;2022-09-09T06:59:05;99990.23;;;16.27;42.32
63883;BME280;50047;50.596;30.466;2022-09-09T07:01:35;99994.57;;;16.22;42.64
63883;BME280;50047;50.596;30.466;2022-09-09T07:04:05;99996.30;;;16.51;41.91
63883;BME280;50047;50.596;30.466;2022-09-09T07:06:38;100000.58;;;16.78;41.23
63883;BME280;50047;50.596;30.466;2022-09-09T07:09:11;100006.98;;;16.94;40.77
63883;BME280;50047;50.596;30.466;2022-09-09T07:11:44;99999.82;;;17.18;40.54
63883;BME280;50047;50.596;30.466;2022-09-09T07:14:12;100008.77;;;17.37;40.56
63883;BME280;50047;50.596;30.466;2022-09-09T07:16:43;100010.89;;;17.36;40.85
63883;BME280;50047;50.596;30.466;2022-09-09T07:19:11;100008.84;;;17.43;40.42
63883;BME280;50047;50.596;30.466;2022-09-09T07:21:40;100005.60;;;17.44;40.58
63883;BME280;50047;50.596;30.466;2022-09-09T07:24:07;100009.88;;;17.55;40.22
63883;BME280;50047;50.596;30.466;2022-09-09T07:26:38;100008.70;;;17.64;39.95
63883;BME280;50047;50.596;30.466;2022-09-09T07:29:07;99994.69;;;17.71;40.17
63883;BME280;50047;50.596;30.466;2022-09-09T07:31:37;99991.33;;;17.88;39.96
63883;BME280;50047;50.596;30.466;2022-09-09T07:34:08;99997.34;;;18.14;39.38
63883;BME280;50047;50.596;30.466;2022-09-09T07:36:37;100000.69;;;18.20;39.05
63883;BME280;50047;50.596;30.466;2022-09-09T07:39:08;99999.13;;;17.73;39.50
63883;BME280;50047;50.596;30.466;2022-09-09T07:41:42;100004.64;;;17.77;39.61
63883;BME280;50047;50.596;30.466;2022-09-09T07:44:15;100007.68;;;17.73;39.50
63883;BME280;50047;50.596;30.466;2022-09-09T07:46:45;100007.09;;;17.90;38.88
63883;BME280;50047;50.596;30.466;2022-09-09T07:49:15;100008.38;;;17.92;38.85
63883;BME280;50047;50.596;30.466;2022-09-09T07:51:44;100011.47;;;17.97;38.48
63883;BME280;50047;50.596;30.466;2022-09-09T07:54:14;100009.42;;;17.98;38.39
63883;BME280;50047;50.596;30.466;2022-09-09T07:56:43;100004.71;;;17.95;38.41
63883;BME280;50047;50.596;30.466;2022-09-09T07:59:10;100009.89;;;17.67;38.53
63883;BME280;50047;50.596;30.466;2022-09-09T08:01:48;100005.45;;;17.74;38.55
63883;BME280;50047;50.596;30.466;2022-09-09T08:04:19;100003.19;;;17.81;37.96
63883;BME280;50047;50.596;30.466;2022-09-09T08:06:58;99997.30;;;17.83;38.01
63883;BME280;50047;50.596;30.466;2022-09-09T08:09:27;99993.45;;;17.90;37.78
63883;BME280;50047;50.596;30.466;2022-09-09T08:12:16;99993.77;;;17.84;36.78
63883;BME280;50047;50.596;30.466;2022-09-09T08:14:43;99994.91;;;17.98;36.24
63883;BME280;50047;50.596;30.466;2022-09-09T08:17:10;99997.48;;;18.03;36.31
63883;BME280;50047;50.596;30.466;2022-09-09T08:19:38;99984.63;;;18.50;35.94
63883;BME280;50047;50.596;30.466;2022-09-09T08:22:09;99977.89;;;18.83;35.34
63883;BME280;50047;50.596;30.466;2022-09-09T08:24:38;99976.95;;;19.01;35.39
63883;BME280;50047;50.596;30.466;2022-09-09T08:27:06;99978.61;;;19.03;35.37
63883;BME280;50047;50.596;30.466;2022-09-09T08:29:33;99973.33;;;18.70;35.34
63883;BME280;50047;50.596;30.466;2022-09-09T08:32:01;99977.39;;;18.59;35.48
63883;BME280;50047;50.596;30.466;2022-09-09T08:34:30;99980.80;;;18.75;35.49
63883;BME280;50047;50.596;30.466;2022-09-09T08:37:00;99968.15;;;18.80;35.18
63883;BME280;50047;50.596;30.466;2022-09-09T08:39:32;99980.34;;;18.79;34.99
63883;BME280;50047;50.596;30.466;2022-09-09T08:42:34;99960.01;;;18.83;34.60
63883;BME280;50047;50.596;30.466;2022-09-09T08:45:26;99971.88;;;18.93;34.71
63883;BME280;50047;50.596;30.466;2022-09-09T08:48:08;99975.35;;;19.13;34.08
63883;BME280;50047;50.596;30.466;2022-09-09T08:50:39;99965.45;;;19.19;33.59
63883;BME280;50047;50.596;30.466;2022-09-09T08:53:27;99959.70;;;19.03;33.87
63883;BME280;50047;50.596;30.466;2022-09-09T08:55:59;99952.94;;;19.55;33.25
63883;BME280;50047;50.596;30.466;2022-09-09T08:58:50;99949.66;;;19.57;33.16
63883;BME280;50047;50.596;30.466;2022-09-09T09:07:12;99961.73;;;19.31;32.76
63883;BME280;50047;50.596;30.466;2022-09-09T09:10:44;99957.45;;;19.32;32.75
63883;BME280;50047;50.596;30.466;2022-09-09T09:13:12;99953.02;;;19.27;33.04
63883;BME280;50047;50.596;30.466;2022-09-09T09:15:41;99946.23;;;19.52;32.93
63883;BME280;50047;50.596;30.466;2022-09-09T09:18:12;99941.29;;;19.84;32.67
63883;BME280;50047;50.596;30.466;2022-09-09T09:20:50;99947.98;;;20.05;32.07
63883;BME280;50047;50.596;30.466;2022-09-09T09:23:23;99943.23;;;19.92;31.85
63883;BME280;50047;50.596;30.466;2022-09-09T09:25:56;99951.74;;;19.74;32.41
63883;BME280;50047;50.596;30.466;2022-09-09T09:28:31;99953.64;;;19.48;32.33
63883;BME280;50047;50.596;30.466;2022-09-09T09:31:07;99949.83;;;19.62;32.27
63883;BME280;50047;50.596;30.466;2022-09-09T09:33:51;99937.91;;;19.65;32.32
63883;BME280;50047;50.596;30.466;2022-09-09T09:36:32;99943.38;;;19.92;32.22
63883;BME280;50047;50.596;30.466;2022-09-09T09:39:02;99941.75;;;19.73;32.22
63883;BME280;50047;50.596;30.466;2022-09-09T09:41:52;99943.92;;;19.99;32.04
63883;BME280;50047;50.596;30.466;2022-09-09T09:49:35;99944.95;;;20.26;31.44
63883;BME280;50047;50.596;30.466;2022-09-09T09:52:06;99957.66;;;19.80;31.80
63883;BME280;50047;50.596;30.466;2022-09-09T09:54:39;99945.75;;;19.95;31.53
63883;BME280;50047;50.596;30.466;2022-09-09T09:57:15;99945.76;;;19.94;31.20
63883;BME280;50047;50.596;30.466;2022-09-09T09:59:45;99939.39;;;20.03;30.95
63883;BME280;50047;50.596;30.466;2022-09-09T10:02:24;99944.17;;;20.02;30.99
63883;BME280;50047;50.596;30.466;2022-09-09T10:05:02;99953.59;;;20.14;30.80
63883;BME280;50047;50.596;30.466;2022-09-09T10:07:31;99956.58;;;20.39;30.63
63883;BME280;50047;50.596;30.466;2022-09-09T10:10:00;99946.38;;;20.57;30.41
63883;BME280;50047;50.596;30.466;2022-09-09T10:12:47;99950.85;;;20.55;30.44
63883;BME280;50047;50.596;30.466;2022-09-09T10:23:15;99940.66;;;21.11;29.99
63883;BME280;50047;50.596;30.466;2022-09-09T10:37:50;99950.11;;;21.57;29.31
63883;BME280;50047;50.596;30.466;2022-09-09T10:42:58;99948.91;;;21.65;29.50
63883;BME280;50047;50.596;30.466;2022-09-09T10:45:35;99945.14;;;22.21;29.04
63883;BME280;50047;50.596;30.466;2022-09-09T10:56:30;99943.30;;;21.76;29.24
63883;BME280;50047;50.596;30.466;2022-09-09T10:59:22;99944.19;;;21.86;28.99
63883;BME280;50047;50.596;30.466;2022-09-09T11:04:28;99950.60;;;21.51;29.48
63883;BME280;50047;50.596;30.466;2022-09-09T11:07:02;99947.96;;;21.70;29.27
63883;BME280;50047;50.596;30.466;2022-09-09T11:09:43;99950.40;;;21.64;29.09
63883;BME280;50047;50.596;30.466;2022-09-09T11:12:18;99944.46;;;21.51;29.23
63883;BME280;50047;50.596;30.466;2022-09-09T11:15:20;99947.32;;;21.73;29.11
63883;BME280;50047;50.596;30.466;2022-09-09T11:17:55;99941.71;;;21.94;28.97
63883;BME280;50047;50.596;30.466;2022-09-09T11:20:23;99944.13;;;21.88;28.94
63883;BME280;50047;50.596;30.466;2022-09-09T11:23:07;99947.05;;;21.69;29.02
63883;BME280;50047;50.596;30.466;2022-09-09T11:25:40;99947.85;;;21.39;29.31
63883;BME280;50047;50.596;30.466;2022-09-09T11:44:41;99932.06;;;21.58;28.51
63883;BME280;50047;50.596;30.466;2022-09-09T11:47:29;99945.55;;;21.37;28.68
63883;BME280;50047;50.596;30.466;2022-09-09T11:52:44;99938.04;;;21.57;28.51
63883;BME280;50047;50.596;30.466;2022-09-09T11:55:34;99922.29;;;21.72;28.17
63883;BME280;50047;50.596;30.466;2022-09-09T12:00:46;99920.02;;;21.83;28.21
63883;BME280;50047;50.596;30.466;2022-09-09T12:06:08;99913.57;;;21.69;28.30
63883;BME280;50047;50.596;30.466;2022-09-09T12:08:36;99909.27;;;21.87;28.20
63883;BME280;50047;50.596;30.466;2022-09-09T12:11:04;99909.76;;;21.94;28.27
63883;BME280;50047;50.596;30.466;2022-09-09T12:13:31;99908.96;;;21.95;28.42
63883;BME280;50047;50.596;30.466;2022-09-09T12:15:59;99911.94;;;22.02;28.26
63883;BME280;50047;50.596;30.466;2022-09-09T12:31:56;99915.61;;;21.51;28.53
63883;BME280;50047;50.596;30.466;2022-09-09T12:37:16;99920.13;;;21.34;28.73
63883;BME280;50047;50.596;30.466;2022-09-09T12:39:56;99911.38;;;21.49;28.57
63883;BME280;50047;50.596;30.466;2022-09-09T12:42:26;99922.45;;;21.17;28.79
63883;BME280;50047;50.596;30.466;2022-09-09T12:44:58;99925.86;;;21.12;28.96
63883;BME280;50047;50.596;30.466;2022-09-09T12:47:43;99914.95;;;21.44;28.90
63883;BME280;50047;50.596;30.466;2022-09-09T12:50:21;99922.00;;;21.49;28.89
63883;BME280;50047;50.596;30.466;2022-09-09T12:52:51;99920.45;;;21.28;29.13
63883;BME280;50047;50.596;30.466;2022-09-09T12:55:32;99918.89;;;21.08;29.28
63883;BME280;50047;50.596;30.466;2022-09-09T12:58:01;99917.05;;;21.15;29.49
63883;BME280;50047;50.596;30.466;2022-09-09T13:00:33;99916.19;;;21.08;29.63
63883;BME280;50047;50.596;30.466;2022-09-09T13:03:13;99915.63;;;21.33;29.46
63883;BME280;50047;50.596;30.466;2022-09-09T13:05:43;99909.52;;;21.44;29.05
63883;BME280;50047;50.596;30.466;2022-09-09T13:08:12;99902.52;;;21.52;28.92
63883;BME280;50047;50.596;30.466;2022-09-09T13:11:02;99910.79;;;21.29;29.24
63883;BME280;50047;50.596;30.466;2022-09-09T13:13:38;99907.46;;;21.05;29.18
63883;BME280;50047;50.596;30.466;2022-09-09T13:16:17;99907.77;;;21.30;29.09
63883;BME280;50047;50.596;30.466;2022-09-09T13:18:45;99903.89;;;21.55;28.62
63883;BME280;50047;50.596;30.466;2022-09-09T13:21:13;99908.59;;;21.71;28.31
63883;BME280;50047;50.596;30.466;2022-09-09T13:23:41;99902.81;;;21.77;28.11
63883;BME280;50047;50.596;30.466;2022-09-09T13:26:23;99901.73;;;21.77;27.74
63883;BME280;50047;50.596;30.466;2022-09-09T13:28:53;99905.09;;;21.61;27.79
63883;BME280;50047;50.596;30.466;2022-09-09T13:31:28;99906.16;;;21.63;27.91
63883;BME280;50047;50.596;30.466;2022-09-09T13:33:56;99907.14;;;21.49;27.98
63883;BME280;50047;50.596;30.466;2022-09-09T13:36:32;99911.34;;;21.29;28.56
63883;BME280;50047;50.596;30.466;2022-09-09T13:39:03;99906.71;;;21.32;28.43
63883;BME280;50047;50.596;30.466;2022-09-09T13:41:36;99907.93;;;21.37;28.35
63883;BME280;50047;50.596;30.466;2022-09-09T13:44:04;99912.48;;;21.32;28.25
63883;BME280;50047;50.596;30.466;2022-09-09T13:46:41;99912.11;;;21.31;28.13
63883;BME280;50047;50.596;30.466;2022-09-09T13:54:12;99912.20;;;21.25;28.40
63883;BME280;50047;50.596;30.466;2022-09-09T13:56:40;99911.80;;;21.13;28.25
63883;BME280;50047;50.596;30.466;2022-09-09T13:59:17;99911.95;;;21.17;28.49
63883;BME280;50047;50.596;30.466;2022-09-09T14:01:47;99908.98;;;21.09;28.16
63883;BME280;50047;50.596;30.466;2022-09-09T14:04:16;99905.12;;;20.98;28.24
63883;BME280;50047;50.596;30.466;2022-09-09T14:06:44;99900.61;;;21.04;28.09
63883;BME280;50047;50.596;30.466;2022-09-09T14:09:15;99899.90;;;20.97;27.89
63883;BME280;50047;50.596;30.466;2022-09-09T14:11:44;99902.65;;;20.84;27.90
63883;BME280;50047;50.596;30.466;2022-09-09T14:14:13;99902.23;;;20.73;28.02
63883;BME280;50047;50.596;30.466;2022-09-09T14:16:40;99900.33;;;20.87;28.10
63883;BME280;50047;50.596;30.466;2022-09-09T14:19:09;99897.64;;;20.84;28.24
63883;BME280;50047;50.596;30.466;2022-09-09T14:21:40;99897.71;;;20.87;28.30
63883;BME280;50047;50.596;30.466;2022-09-09T14:24:09;99893.67;;;20.88;28.32
63883;BME280;50047;50.596;30.466;2022-09-09T14:26:40;99892.86;;;20.71;28.59
63883;BME280;50047;50.596;30.466;2022-09-09T14:29:11;99891.02;;;20.70;28.81
63883;BME280;50047;50.596;30.466;2022-09-09T14:31:38;99885.52;;;20.67;29.10
63883;BME280;50047;50.596;30.466;2022-09-09T14:34:05;99885.14;;;20.62;29.27
63883;BME280;50047;50.596;30.466;2022-09-09T14:36:33;99882.13;;;20.56;29.65
63883;BME280;50047;50.596;30.466;2022-09-09T14:39:00;99882.29;;;20.60;29.68
63883;BME280;50047;50.596;30.466;2022-09-09T14:41:27;99877.19;;;20.52;30.08
63883;BME280;50047;50.596;30.466;2022-09-09T14:43:56;99878.92;;;20.43;30.31
63883;BME280;50047;50.596;30.466;2022-09-09T14:46:24;99876.69;;;20.31;30.71
63883;BME280;50047;50.596;30.466;2022-09-09T14:48:53;99873.91;;;20.32;30.70
63883;BME280;50047;50.596;30.466;2022-09-09T14:51:26;99879.34;;;20.33;30.72
63883;BME280;50047;50.596;30.466;2022-09-09T14:53:57;99878.61;;;20.21;30.92
63883;BME280;50047;50.596;30.466;2022-09-09T14:56:30;99878.92;;;20.21;30.89
63883;BME280;50047;50.596;30.466;2022-09-09T14:58:58;99882.95;;;20.26;31.09
63883;BME280;50047;50.596;30.466;2022-09-09T15:01:30;99888.74;;;20.15;31.10
63883;BME280;50047;50.596;30.466;2022-09-09T15:04:00;99887.48;;;20.11;31.33
63883;BME280;50047;50.596;30.466;2022-09-09T15:06:30;99889.52;;;20.12;31.23
63883;BME280;50047;50.596;30.466;2022-09-09T15:08:59;99887.88;;;20.09;31.40
63883;BME280;50047;50.596;30.466;2022-09-09T15:11:29;99889.52;;;20.17;31.28
63883;BME280;50047;50.596;30.466;2022-09-09T15:13:57;99886.98;;;20.17;31.28
63883;BME280;50047;50.596;30.466;2022-09-09T16:09:32;99904.54;;;16.67;39.09
63883;BME280;50047;50.596;30.466;2022-09-09T16:12:02;99904.24;;;17.81;36.69
63883;BME280;50047;50.596;30.466;2022-09-09T16:14:29;99902.09;;;18.14;36.03
63883;BME280;50047;50.596;30.466;2022-09-09T16:17:02;99902.94;;;18.19;35.73
63883;BME280;50047;50.596;30.466;2022-09-09T16:19:29;99900.35;;;18.32;35.50
63883;BME280;50047;50.596;30.466;2022-09-09T16:22:01;99898.37;;;18.37;35.48
63883;BME280;50047;50.596;30.466;2022-09-09T16:24:28;99897.89;;;18.37;35.53